createdAt,value
2023-05-02T00:00:28.557Z,55.04
2023-05-02T00:01:28.521Z,45.11
2023-05-02T00:02:28.588Z,39.46
2023-05-02T00:03:28.631Z,42.17
2023-05-02T00:04:28.543Z,41.43
2023-05-02T00:05:28.516Z,49.26
2023-05-02T00:06:28.527Z,42.86
2023-05-02T00:07:28.476Z,45.88
2023-05-02T00:08:28.466Z,40.71
2023-05-02T00:09:28.456Z,40.34
2023-05-02T00:10:28.497Z,42.23
2023-05-02T00:11:28.444Z,46.35
2023-05-02T00:12:28.440Z,42.13
2023-05-02T00:13:28.468Z,40.32
2023-05-02T00:14:28.420Z,44.56
2023-05-02T00:15:28.457Z,39.93
2023-05-02T00:16:28.427Z,39.47
2023-05-02T00:17:28.413Z,45.14
2023-05-02T00:18:28.415Z,45.20
2023-05-02T00:19:28.379Z,45.99
2023-05-02T00:20:28.400Z,42.66
2023-05-02T00:21:28.368Z,44.92
2023-05-02T00:22:28.360Z,47.36
2023-05-02T00:23:28.348Z,38.89
2023-05-02T00:24:28.342Z,38.85
2023-05-02T00:25:28.385Z,40.54
2023-05-02T00:26:29.485Z,45.60
2023-05-02T00:27:29.472Z,42.31
2023-05-02T00:28:29.483Z,54.98
2023-05-02T00:29:29.488Z,43.19
2023-05-02T00:30:29.518Z,43.43
2023-05-02T00:31:29.541Z,47.14
2023-05-02T00:32:29.502Z,51.56
2023-05-02T00:33:29.456Z,42.60
2023-05-02T00:34:29.624Z,43.38
2023-05-02T00:35:29.432Z,34.65
2023-05-02T00:36:29.418Z,34.61
2023-05-02T00:37:29.405Z,35.78
2023-05-02T00:38:29.399Z,43.51
2023-05-02T00:39:29.579Z,46.40
2023-05-02T00:40:29.379Z,44.03
2023-05-02T00:41:29.377Z,41.94
2023-05-02T00:42:29.366Z,37.07
2023-05-02T00:43:29.384Z,36.40
2023-05-02T00:44:29.356Z,39.73
2023-05-02T00:45:29.369Z,42.02
2023-05-02T00:46:29.380Z,43.71
2023-05-02T00:47:29.397Z,49.42
2023-05-02T00:48:29.321Z,48.48
2023-05-02T00:49:29.323Z,41.38
2023-05-02T00:50:29.326Z,37.76
2023-05-02T00:51:29.300Z,40.00
2023-05-02T00:52:29.365Z,44.83
2023-05-02T00:53:29.274Z,48.98
2023-05-02T00:54:29.273Z,46.45
2023-05-02T00:55:29.290Z,45.13
2023-05-02T00:56:29.274Z,55.61
2023-05-02T00:57:29.245Z,43.72
2023-05-02T00:58:29.253Z,44.23
2023-05-02T00:59:29.228Z,61.37
2023-05-02T01:00:29.265Z,47.05
2023-05-02T01:01:29.257Z,40.20
2023-05-02T01:02:29.281Z,42.60
2023-05-02T01:03:29.456Z,38.05
2023-05-02T01:04:29.213Z,37.82
2023-05-02T01:05:29.209Z,41.25
2023-05-02T01:06:30.059Z,44.15
2023-05-02T01:07:29.168Z,41.48
2023-05-02T01:08:29.171Z,39.39
2023-05-02T01:09:29.832Z,37.93
2023-05-02T01:10:29.177Z,43.49
2023-05-02T01:11:29.148Z,40.86
2023-05-02T01:12:29.158Z,47.06
2023-05-02T01:13:29.203Z,37.80
2023-05-02T01:14:29.123Z,45.13
2023-05-02T01:15:29.128Z,43.97
2023-05-02T01:16:29.149Z,43.99
2023-05-02T01:17:29.211Z,37.21
2023-05-02T01:18:29.094Z,37.41
2023-05-02T01:19:29.080Z,37.51
2023-05-02T01:20:29.106Z,46.21
2023-05-02T01:21:29.079Z,47.01
2023-05-02T01:22:29.053Z,40.45
2023-05-02T01:23:29.055Z,40.81
2023-05-02T01:24:29.038Z,36.95
2023-05-02T01:25:29.092Z,40.95
2023-05-02T01:26:29.052Z,36.47
2023-05-02T01:27:29.042Z,36.18
2023-05-02T01:28:29.012Z,36.64
2023-05-02T01:29:29.020Z,43.32
2023-05-02T01:30:29.026Z,37.71
2023-05-02T01:31:29.052Z,40.48
2023-05-02T01:32:29.018Z,42.81
2023-05-02T01:33:28.983Z,47.17
2023-05-02T01:34:28.958Z,44.20
2023-05-02T01:35:28.978Z,42.88
2023-05-02T01:36:28.950Z,53.08
2023-05-02T01:37:28.950Z,44.38
2023-05-02T01:38:28.936Z,41.49
2023-05-02T01:39:28.927Z,44.49
2023-05-02T01:40:28.948Z,44.01
2023-05-02T01:41:28.927Z,43.08
2023-05-02T01:42:28.910Z,60.97
2023-05-02T01:43:54.418Z,46.61
2023-05-02T01:44:28.896Z,52.66
2023-05-02T01:45:28.904Z,40.24
2023-05-02T01:46:29.933Z,46.50
2023-05-02T01:47:28.930Z,43.90
2023-05-02T01:48:28.858Z,40.03
2023-05-02T01:49:28.849Z,44.39
2023-05-02T01:50:28.899Z,47.89
2023-05-02T01:51:28.831Z,39.96
2023-05-02T01:52:28.837Z,45.97
2023-05-02T01:53:31.557Z,47.51
2023-05-02T01:54:28.803Z,50.39
2023-05-02T01:55:28.836Z,51.05
2023-05-02T01:56:28.796Z,47.02
2023-05-02T01:57:28.781Z,47.24
2023-05-02T01:58:28.780Z,44.71
2023-05-02T01:59:28.774Z,48.68
2023-05-02T02:00:28.966Z,42.34
2023-05-02T02:01:28.797Z,45.36
2023-05-02T02:02:29.808Z,48.09
2023-05-02T02:03:28.770Z,52.27
2023-05-02T02:04:28.822Z,50.16
2023-05-02T02:05:28.747Z,41.50
2023-05-02T02:06:28.732Z,52.29
2023-05-02T02:07:28.753Z,46.77
2023-05-02T02:08:28.734Z,44.14
2023-05-02T02:09:28.694Z,47.02
2023-05-02T02:10:28.893Z,42.73
2023-05-02T02:11:28.689Z,44.00
2023-05-02T02:12:28.682Z,49.11
2023-05-02T02:13:29.672Z,49.79
2023-05-02T02:14:28.664Z,49.65
2023-05-02T02:15:28.650Z,43.88
2023-05-02T02:16:28.742Z,51.46
2023-05-02T02:17:28.689Z,50.24
2023-05-02T02:18:28.620Z,48.20
2023-05-02T02:19:28.614Z,50.37
2023-05-02T02:20:28.605Z,45.31
2023-05-02T02:21:28.631Z,49.82
2023-05-02T02:22:28.595Z,39.29
2023-05-02T02:23:28.593Z,49.93
2023-05-02T02:24:28.580Z,41.71
2023-05-02T02:25:28.573Z,38.02
2023-05-02T02:26:28.592Z,43.02
2023-05-02T02:27:28.562Z,46.93
2023-05-02T02:28:28.553Z,47.44
2023-05-02T02:29:28.552Z,39.94
2023-05-02T02:30:28.558Z,39.79
2023-05-02T02:31:28.596Z,44.25
2023-05-02T02:32:28.591Z,45.32
2023-05-02T02:33:28.513Z,50.56
2023-05-02T02:34:28.501Z,47.13
2023-05-02T02:35:28.502Z,45.43
2023-05-02T02:36:28.526Z,51.24
2023-05-02T02:37:28.488Z,49.28
2023-05-02T02:38:28.477Z,54.70
2023-05-02T02:39:28.474Z,53.37
2023-05-02T02:40:28.455Z,48.06
2023-05-02T02:41:28.476Z,45.27
2023-05-02T02:42:28.448Z,44.60
2023-05-02T02:43:28.450Z,49.91
2023-05-02T02:44:28.437Z,45.07
2023-05-02T02:45:28.423Z,48.27
2023-05-02T02:46:28.518Z,51.77
2023-05-02T02:47:28.447Z,49.07
2023-05-02T02:48:28.394Z,44.55
2023-05-02T02:49:28.402Z,50.48
2023-05-02T02:50:29.400Z,48.95
2023-05-02T02:51:28.566Z,47.20
2023-05-02T02:52:28.387Z,52.15
2023-05-02T02:53:28.378Z,48.53
2023-05-02T02:54:28.358Z,52.42
2023-05-02T02:55:28.346Z,53.82
2023-05-02T02:56:28.377Z,55.18
2023-05-02T02:57:28.331Z,55.79
2023-05-02T02:58:28.330Z,58.59
2023-05-02T02:59:28.321Z,55.61
2023-05-02T03:00:28.334Z,55.15
2023-05-02T03:01:28.354Z,55.64
2023-05-02T03:02:28.401Z,56.65
2023-05-02T03:03:28.330Z,55.82
2023-05-02T03:04:29.274Z,60.15
2023-05-02T03:05:28.278Z,53.93
2023-05-02T03:06:28.294Z,52.74
2023-05-02T03:07:28.359Z,51.95
2023-05-02T03:08:28.245Z,50.62
2023-05-02T03:09:28.241Z,52.28
2023-05-02T03:10:28.228Z,53.32
2023-05-02T03:11:29.542Z,53.71
2023-05-02T03:12:28.234Z,54.14
2023-05-02T03:13:28.205Z,58.37
2023-05-02T03:14:28.242Z,53.74
2023-05-02T03:15:28.190Z,53.22
2023-05-02T03:16:28.229Z,57.16
2023-05-02T03:17:28.236Z,53.01
2023-05-02T03:18:28.163Z,56.47
2023-05-02T03:19:28.169Z,58.64
2023-05-02T03:20:28.154Z,55.84
2023-05-02T03:21:28.145Z,54.65
2023-05-02T03:22:28.158Z,56.74
2023-05-02T03:23:28.129Z,55.78
2023-05-02T03:24:28.120Z,53.22
2023-05-02T03:25:28.108Z,54.17
2023-05-02T03:26:29.120Z,55.06
2023-05-02T03:27:28.111Z,53.06
2023-05-02T03:28:28.081Z,56.43
2023-05-02T03:29:28.073Z,55.27
2023-05-02T03:30:28.090Z,53.46
2023-05-02T03:31:28.125Z,57.05
2023-05-02T03:32:28.144Z,53.08
2023-05-02T03:36:25.359Z,58.78
2023-05-02T03:37:25.378Z,56.52
2023-05-02T03:38:25.344Z,57.07
2023-05-02T03:39:26.509Z,58.48
2023-05-02T03:40:26.488Z,57.05
2023-05-02T03:41:26.478Z,59.89
2023-05-02T03:42:26.512Z,57.02
2023-05-02T03:43:26.499Z,57.07
2023-05-02T03:44:26.459Z,57.34
2023-05-02T03:45:26.452Z,58.73
2023-05-02T03:46:26.515Z,59.46
2023-05-02T03:47:26.550Z,58.29
2023-05-02T03:48:26.461Z,58.30
2023-05-02T03:49:26.428Z,59.48
2023-05-02T03:50:26.415Z,58.84
2023-05-02T03:51:26.406Z,57.60
2023-05-02T03:52:26.428Z,57.55
2023-05-02T03:53:26.389Z,55.12
2023-05-02T03:54:26.390Z,55.77
2023-05-02T03:55:27.380Z,57.47
2023-05-02T03:56:26.377Z,58.06
2023-05-02T03:57:26.378Z,56.38
2023-05-02T03:58:26.357Z,57.50
2023-05-02T03:59:26.374Z,56.82
2023-05-02T04:00:26.345Z,57.10
2023-05-02T04:01:26.333Z,56.96
2023-05-02T04:02:26.435Z,56.86
2023-05-02T04:03:27.956Z,56.64
2023-05-02T04:04:26.334Z,57.62
2023-05-02T04:05:26.303Z,59.82
2023-05-02T04:06:26.322Z,57.37
2023-05-02T04:07:26.313Z,56.15
2023-05-02T04:08:26.273Z,55.74
2023-05-02T04:09:26.271Z,54.35
2023-05-02T04:10:26.262Z,56.67
2023-05-02T04:11:26.256Z,56.89
2023-05-02T04:12:26.270Z,55.15
2023-05-02T04:13:26.246Z,56.31
2023-05-02T04:14:26.265Z,61.11
2023-05-02T04:15:26.315Z,56.83
2023-05-02T04:16:26.221Z,55.20
2023-05-02T04:17:26.327Z,56.18
2023-05-02T04:18:26.207Z,56.17
2023-05-02T04:19:26.187Z,55.15
2023-05-02T04:20:26.199Z,57.72
2023-05-02T04:21:26.190Z,55.16
2023-05-02T04:22:50.333Z,56.13
2023-05-02T04:23:26.164Z,54.57
2023-05-02T04:24:26.156Z,56.81
2023-05-02T04:25:26.173Z,58.49
2023-05-02T04:26:26.134Z,52.80
2023-05-02T04:27:26.164Z,56.43
2023-05-02T04:28:26.131Z,55.06
2023-05-02T04:29:26.119Z,61.42
2023-05-02T04:30:26.100Z,54.06
2023-05-02T04:31:27.240Z,56.68
2023-05-02T04:32:26.126Z,61.86
2023-05-02T04:33:26.102Z,59.21
2023-05-02T04:34:26.071Z,57.42
2023-05-02T04:35:26.070Z,57.60
2023-05-02T04:36:26.075Z,57.93
2023-05-02T04:37:26.093Z,57.42
2023-05-02T04:38:26.049Z,61.53
2023-05-02T04:39:26.088Z,56.24
2023-05-02T04:40:26.034Z,59.18
2023-05-02T04:41:26.019Z,56.74
2023-05-02T04:42:26.049Z,58.49
2023-05-02T04:43:26.019Z,58.84
2023-05-02T04:44:26.040Z,56.84
2023-05-02T04:45:26.012Z,56.91
2023-05-02T04:46:26.041Z,58.07
2023-05-02T04:47:26.016Z,57.01
2023-05-02T04:48:25.971Z,58.92
2023-05-02T04:49:25.967Z,57.15
2023-05-02T04:50:25.952Z,58.45
2023-05-02T04:51:25.946Z,56.31
2023-05-02T04:52:25.995Z,57.83
2023-05-02T04:53:25.940Z,57.58
2023-05-02T04:54:25.954Z,57.93
2023-05-02T04:55:25.946Z,57.19
2023-05-02T04:56:26.400Z,57.16
2023-05-02T04:57:25.929Z,56.63
2023-05-02T04:58:25.891Z,56.94
2023-05-02T04:59:25.887Z,56.71
2023-05-02T05:00:25.878Z,56.19
2023-05-02T05:01:25.902Z,57.08
2023-05-02T05:02:26.013Z,58.26
2023-05-02T05:03:25.991Z,59.35
2023-05-02T05:04:25.850Z,56.14
2023-05-02T05:05:25.876Z,54.65
2023-05-02T05:06:25.875Z,56.98
2023-05-02T05:07:25.890Z,59.03
2023-05-02T05:08:25.837Z,59.51
2023-05-02T05:09:25.810Z,58.21
2023-05-02T05:10:25.810Z,57.98
2023-05-02T05:11:25.796Z,57.66
2023-05-02T05:12:25.854Z,56.99
2023-05-02T05:13:25.802Z,54.59
2023-05-02T05:14:25.766Z,58.28
2023-05-02T05:15:25.755Z,57.10
2023-05-02T05:16:25.864Z,58.52
2023-05-02T05:17:25.793Z,58.98
2023-05-02T05:18:25.774Z,59.37
2023-05-02T05:19:25.731Z,59.33
2023-05-02T05:20:25.721Z,56.89
2023-05-02T05:21:25.721Z,58.12
2023-05-02T05:22:25.701Z,57.01
2023-05-02T05:23:26.722Z,54.74
2023-05-02T05:24:25.699Z,56.63
2023-05-02T05:25:25.697Z,59.95
2023-05-02T05:26:25.682Z,56.16
2023-05-02T05:27:25.706Z,55.02
2023-05-02T05:28:25.689Z,53.75
2023-05-02T05:29:25.654Z,55.85
2023-05-02T05:30:25.697Z,54.38
2023-05-02T05:31:25.673Z,53.93
2023-05-02T05:32:25.669Z,56.37
2023-05-02T05:33:57.642Z,55.95
2023-05-02T05:34:25.611Z,56.29
2023-05-02T05:35:25.601Z,58.00
2023-05-02T05:36:25.633Z,57.17
2023-05-02T05:37:25.587Z,56.44
2023-05-02T05:38:25.639Z,55.35
2023-05-02T05:39:25.612Z,54.71
2023-05-02T05:40:25.594Z,54.95
2023-05-02T05:41:25.560Z,55.00
2023-05-02T05:42:25.555Z,55.44
2023-05-02T05:43:25.657Z,52.38
2023-05-02T05:44:25.537Z,53.27
2023-05-02T05:45:25.525Z,54.76
2023-05-02T05:46:25.588Z,52.59
2023-05-02T05:47:25.666Z,52.72
2023-05-02T05:48:25.573Z,55.08
2023-05-02T05:49:25.503Z,52.47
2023-05-02T05:50:25.498Z,48.89
2023-05-02T05:51:25.479Z,55.09
2023-05-02T05:52:25.487Z,52.68
2023-05-02T05:53:25.516Z,53.96
2023-05-02T05:54:25.467Z,54.62
2023-05-02T05:55:25.463Z,56.41
2023-05-02T05:56:25.454Z,54.46
2023-05-02T05:57:25.438Z,54.46
2023-05-02T05:58:25.472Z,53.42
2023-05-02T05:59:25.426Z,50.69
2023-05-02T06:00:25.415Z,53.65
2023-05-02T06:01:25.415Z,49.49
2023-05-02T06:02:25.459Z,52.92
2023-05-02T06:03:25.521Z,54.86
2023-05-02T06:04:25.452Z,49.64
2023-05-02T06:05:25.389Z,54.61
2023-05-02T06:06:25.435Z,50.01
2023-05-02T06:07:25.368Z,53.24
2023-05-02T06:08:25.548Z,51.34
2023-05-02T06:09:25.356Z,54.34
2023-05-02T06:10:25.343Z,56.96
2023-05-02T06:11:25.333Z,54.85
2023-05-02T06:12:25.330Z,57.77
2023-05-02T06:13:25.370Z,56.45
2023-05-02T06:14:25.355Z,53.00
2023-05-02T06:15:25.394Z,56.18
2023-05-02T06:16:25.369Z,57.53
2023-05-02T06:17:25.325Z,55.31
2023-05-02T06:18:25.280Z,57.14
2023-05-02T06:19:25.309Z,54.65
2023-05-02T06:20:25.271Z,55.59
2023-05-02T06:21:25.269Z,55.14
2023-05-02T06:22:25.261Z,54.69
2023-05-02T06:23:25.426Z,57.72
2023-05-02T06:24:25.235Z,54.62
2023-05-02T06:25:25.234Z,56.81
2023-05-02T06:26:25.221Z,54.01
2023-05-02T06:27:25.221Z,53.65
2023-05-02T06:28:25.203Z,53.98
2023-05-02T06:29:25.212Z,57.61
2023-05-02T06:30:25.201Z,51.58
2023-05-02T06:31:25.224Z,52.68
2023-05-02T06:32:25.267Z,59.30
2023-05-02T06:33:25.160Z,54.44
2023-05-02T06:34:25.172Z,54.79
2023-05-02T06:35:25.143Z,54.93
2023-05-02T06:36:25.138Z,56.29
2023-05-02T06:37:25.121Z,57.21
2023-05-02T06:38:25.124Z,56.05
2023-05-02T06:39:25.145Z,55.87
2023-05-02T06:40:25.104Z,52.93
2023-05-02T06:41:25.091Z,54.47
2023-05-02T06:42:25.083Z,54.77
2023-05-02T06:43:25.080Z,53.55
2023-05-02T06:44:25.106Z,53.84
2023-05-02T06:45:25.062Z,55.70
2023-05-02T06:46:25.124Z,54.27
2023-05-02T06:47:25.094Z,51.96
2023-05-02T06:48:25.041Z,54.80
2023-05-02T06:49:25.080Z,55.83
2023-05-02T06:50:25.046Z,54.54
2023-05-02T06:51:25.054Z,54.59
2023-05-02T06:52:25.010Z,55.05
2023-05-02T06:53:25.006Z,62.84
2023-05-02T06:54:25.019Z,55.98
2023-05-02T06:55:25.000Z,56.84
2023-05-02T06:56:24.980Z,56.03
2023-05-02T06:57:24.978Z,57.93
2023-05-02T06:58:24.968Z,56.33
2023-05-02T06:59:24.984Z,53.20
2023-05-02T07:00:24.945Z,59.87
2023-05-02T07:01:26.030Z,52.92
2023-05-02T07:02:24.961Z,52.22
2023-05-02T07:03:24.929Z,57.15
2023-05-02T07:04:25.220Z,52.76
2023-05-02T07:05:24.908Z,52.00
2023-05-02T07:06:25.016Z,50.51
2023-05-02T07:07:24.893Z,55.13
2023-05-02T07:08:24.899Z,60.95
2023-05-02T07:09:24.899Z,55.79
2023-05-02T07:10:24.864Z,55.06
2023-05-02T07:11:24.855Z,55.64
2023-05-02T07:12:24.877Z,53.97
2023-05-02T07:13:24.855Z,55.61
2023-05-02T07:14:24.863Z,54.18
2023-05-02T07:15:24.829Z,57.20
2023-05-02T07:16:24.887Z,56.42
2023-05-02T07:17:24.820Z,55.27
2023-05-02T07:18:24.813Z,54.99
2023-05-02T07:19:24.867Z,55.79
2023-05-02T07:20:24.918Z,56.13
2023-05-02T07:21:24.797Z,55.25
2023-05-02T07:22:24.787Z,54.00
2023-05-02T07:23:24.775Z,55.50
2023-05-02T07:24:24.796Z,54.74
2023-05-02T07:25:24.781Z,56.99
2023-05-02T07:26:24.752Z,53.39
2023-05-02T07:27:24.781Z,55.51
2023-05-02T07:28:24.729Z,54.42
2023-05-02T07:29:24.757Z,54.50
2023-05-02T07:30:24.842Z,52.51
2023-05-02T07:31:24.721Z,55.40
2023-05-02T07:32:24.767Z,54.66
2023-05-02T07:33:24.754Z,55.92
2023-05-02T07:34:24.751Z,56.58
2023-05-02T07:35:24.689Z,54.12
2023-05-02T07:36:24.681Z,56.76
2023-05-02T07:37:24.662Z,55.41
2023-05-02T07:38:24.680Z,58.76
2023-05-02T07:39:24.746Z,55.60
2023-05-02T07:40:24.716Z,55.52
2023-05-02T07:41:24.633Z,56.48
2023-05-02T07:42:24.629Z,54.75
2023-05-02T07:43:24.620Z,54.01
2023-05-02T07:44:24.648Z,53.66
2023-05-02T07:45:24.607Z,55.99
2023-05-02T07:46:24.609Z,55.53
2023-05-02T07:47:24.611Z,56.24
2023-05-02T07:48:26.195Z,55.22
2023-05-02T07:49:25.595Z,55.49
2023-05-02T07:50:24.634Z,56.96
2023-05-02T07:51:24.562Z,56.95
2023-05-02T07:52:24.555Z,57.76
2023-05-02T07:53:24.563Z,54.39
2023-05-02T07:54:24.573Z,56.03
2023-05-02T07:55:24.565Z,55.55
2023-05-02T07:56:24.523Z,56.16
2023-05-02T07:57:24.572Z,56.02
2023-05-02T07:58:24.502Z,56.25
2023-05-02T07:59:24.542Z,56.13
2023-05-02T08:00:24.599Z,56.85
2023-05-02T08:01:24.558Z,58.62
2023-05-02T08:02:24.579Z,57.83
2023-05-02T08:03:24.658Z,56.13
2023-05-02T08:04:24.541Z,55.86
2023-05-02T08:05:24.473Z,55.37
2023-05-02T08:06:24.488Z,56.41
2023-05-02T08:07:24.436Z,55.47
2023-05-02T08:08:24.436Z,54.08
2023-05-02T08:09:24.448Z,56.50
2023-05-02T08:10:24.421Z,55.33
2023-05-02T08:11:24.403Z,57.44
2023-05-02T08:12:24.398Z,57.46
2023-05-02T08:13:24.393Z,54.83
2023-05-02T08:14:24.424Z,57.36
2023-05-02T08:15:24.390Z,56.00
2023-05-02T08:16:24.437Z,56.03
2023-05-02T08:17:24.379Z,57.17
2023-05-02T08:18:24.354Z,55.88
2023-05-02T08:19:24.370Z,56.07
2023-05-02T08:20:24.348Z,54.76
2023-05-02T08:21:24.351Z,56.53
2023-05-02T08:22:24.323Z,57.23
2023-05-02T08:23:24.318Z,55.14
2023-05-02T08:24:24.330Z,56.63
2023-05-02T08:25:24.313Z,58.22
2023-05-02T08:26:24.294Z,60.42
2023-05-02T08:27:24.290Z,56.41
2023-05-02T08:28:24.281Z,57.11
2023-05-02T08:29:24.298Z,58.45
2023-05-02T08:30:24.260Z,55.46
2023-05-02T08:31:24.252Z,59.29
2023-05-02T08:32:24.243Z,58.05
2023-05-02T08:33:25.237Z,55.26
2023-05-02T08:34:24.292Z,64.71
2023-05-02T08:35:24.237Z,69.61
2023-05-02T08:36:24.225Z,70.43
2023-05-02T08:37:24.209Z,70.98
2023-05-02T08:38:24.201Z,71.05
2023-05-02T08:39:24.212Z,70.85
2023-05-02T08:40:34.010Z,73.86
2023-05-02T08:41:26.185Z,73.78
2023-05-02T08:42:24.176Z,78.63
2023-05-02T08:43:24.173Z,70.96
2023-05-02T08:44:24.209Z,70.01
2023-05-02T08:45:24.144Z,69.06
2023-05-02T08:46:24.224Z,70.45
2023-05-02T08:47:24.213Z,71.00
2023-05-02T08:48:24.123Z,74.97
2023-05-02T08:49:24.138Z,73.99
2023-05-02T08:50:24.104Z,70.73
2023-05-02T08:51:24.102Z,75.45
2023-05-02T08:52:24.102Z,73.57
2023-05-02T08:53:24.103Z,71.85
2023-05-02T08:54:24.106Z,75.86
2023-05-02T08:55:24.071Z,74.24
2023-05-02T08:56:24.069Z,74.07
2023-05-02T08:57:24.062Z,73.96
2023-05-02T08:58:24.046Z,72.68
2023-05-02T08:59:24.086Z,72.26
2023-05-02T09:00:24.037Z,80.87
2023-05-02T09:01:24.099Z,80.37
2023-05-02T09:02:24.051Z,72.71
2023-05-02T09:03:24.049Z,74.35
2023-05-02T09:04:24.085Z,75.59
2023-05-02T09:05:23.988Z,73.46
2023-05-02T09:06:24.034Z,76.63
2023-05-02T09:07:23.988Z,76.05
2023-05-02T09:08:23.977Z,84.01
2023-05-02T09:09:24.005Z,81.80
2023-05-02T09:10:23.962Z,72.79
2023-05-02T09:11:23.952Z,75.79
2023-05-02T09:12:23.934Z,73.97
2023-05-02T09:13:23.932Z,74.29
2023-05-02T09:14:23.965Z,75.05
2023-05-02T09:15:23.935Z,74.95
2023-05-02T09:16:24.034Z,75.52
2023-05-02T09:17:23.897Z,75.22
2023-05-02T09:18:23.916Z,73.96
2023-05-02T09:19:23.914Z,61.23
2023-05-02T09:20:23.896Z,55.25
2023-05-02T09:21:23.891Z,54.96
2023-05-02T09:22:23.867Z,54.80
2023-05-02T09:23:23.864Z,53.08
2023-05-02T09:24:23.888Z,53.68
2023-05-02T09:25:23.841Z,51.83
2023-05-02T09:26:23.838Z,52.25
2023-05-02T09:27:23.887Z,50.82
2023-05-02T09:28:23.888Z,55.59
2023-05-02T09:29:23.870Z,52.80
2023-05-02T09:30:23.816Z,54.31
2023-05-02T09:32:24.783Z,55.32
2023-05-02T09:33:23.782Z,52.66
2023-05-02T09:34:23.810Z,54.53
2023-05-02T09:35:23.811Z,53.63
2023-05-02T09:36:23.776Z,52.92
2023-05-02T09:37:23.748Z,55.02
2023-05-02T09:38:23.738Z,54.85
2023-05-02T09:39:25.548Z,53.72
2023-05-02T09:40:24.782Z,54.92
2023-05-02T09:41:23.719Z,57.13
2023-05-02T09:42:23.708Z,55.08
2023-05-02T09:43:23.701Z,53.65
2023-05-02T09:44:23.721Z,55.79
2023-05-02T09:45:23.689Z,54.73
2023-05-02T09:46:23.689Z,55.27
2023-05-02T09:47:23.699Z,57.06
2023-05-02T09:48:23.675Z,54.41
2023-05-02T09:49:23.701Z,58.77
2023-05-02T09:50:23.640Z,54.64
2023-05-02T09:51:23.640Z,53.65
2023-05-02T09:52:23.642Z,55.25
2023-05-02T09:53:23.615Z,53.50
2023-05-02T09:54:23.650Z,53.19
2023-05-02T09:55:23.606Z,50.52
2023-05-02T09:56:24.883Z,52.61
2023-05-02T09:57:23.585Z,55.89
2023-05-02T09:58:23.584Z,51.90
2023-05-02T09:59:23.582Z,50.69
2023-05-02T10:00:23.595Z,56.19
2023-05-02T10:01:23.576Z,53.14
2023-05-02T10:02:23.611Z,52.59
2023-05-02T10:03:23.589Z,53.79
2023-05-02T10:04:23.766Z,53.66
2023-05-02T10:05:23.555Z,53.84
2023-05-02T10:06:23.558Z,54.92
2023-05-02T10:07:23.520Z,54.56
2023-05-02T10:08:23.505Z,53.24
2023-05-02T10:09:23.500Z,51.97
2023-05-02T10:10:23.514Z,55.40
2023-05-02T10:11:23.494Z,60.97
2023-05-02T10:12:23.477Z,54.60
2023-05-02T10:13:23.471Z,59.38
2023-05-02T10:14:23.461Z,59.54
2023-05-02T10:15:23.508Z,57.85
2023-05-02T10:16:23.528Z,56.79
2023-05-02T10:17:23.438Z,56.19
2023-05-02T10:18:23.473Z,57.83
2023-05-02T10:19:23.434Z,51.88
2023-05-02T10:20:23.452Z,57.89
2023-05-02T10:21:23.399Z,58.31
2023-05-02T10:22:23.403Z,57.40
2023-05-02T10:23:23.389Z,58.93
2023-05-02T10:24:23.391Z,57.65
2023-05-02T10:25:23.398Z,57.73
2023-05-02T10:26:23.363Z,56.51
2023-05-02T10:27:23.411Z,57.90
2023-05-02T10:28:23.369Z,57.21
2023-05-02T10:29:23.341Z,55.64
2023-05-02T10:30:23.358Z,56.57
2023-05-02T10:31:23.349Z,57.87
2023-05-02T10:32:23.351Z,54.51
2023-05-02T10:33:23.312Z,55.59
2023-05-02T10:34:23.350Z,59.35
2023-05-02T10:35:23.359Z,59.31
2023-05-02T10:36:23.291Z,57.14
2023-05-02T10:37:23.284Z,57.31
2023-05-02T10:38:24.788Z,57.15
2023-05-02T10:39:23.257Z,57.47
2023-05-02T10:40:23.291Z,60.82
2023-05-02T10:41:23.253Z,58.42
2023-05-02T10:42:23.232Z,57.86
2023-05-02T10:43:23.227Z,56.58
2023-05-02T10:44:23.216Z,58.72
2023-05-02T10:45:23.242Z,57.57
2023-05-02T10:46:23.239Z,58.91
2023-05-02T10:47:23.284Z,58.37
2023-05-02T10:48:23.181Z,57.77
2023-05-02T10:49:23.173Z,58.50
2023-05-02T10:50:23.205Z,57.44
2023-05-02T10:51:23.146Z,57.63
2023-05-02T10:52:24.158Z,57.31
2023-05-02T10:53:23.163Z,56.80
2023-05-02T10:54:23.150Z,56.30
2023-05-02T10:55:23.155Z,55.81
2023-05-02T10:56:23.120Z,56.37
2023-05-02T10:57:23.135Z,59.22
2023-05-02T10:58:23.102Z,56.45
2023-05-02T10:59:24.098Z,55.77
2023-05-02T11:00:23.129Z,57.04
2023-05-02T11:01:23.113Z,58.30
2023-05-02T11:02:23.179Z,55.70
2023-05-02T11:03:23.091Z,68.76
2023-05-02T11:04:23.062Z,56.19
2023-05-02T11:05:23.107Z,55.13
2023-05-02T11:06:23.054Z,56.93
2023-05-02T11:07:23.042Z,55.25
2023-05-02T11:08:23.462Z,56.77
2023-05-02T11:09:24.021Z,54.59
2023-05-02T11:10:23.045Z,52.88
2023-05-02T11:11:23.038Z,50.27
2023-05-02T11:12:22.998Z,55.54
2023-05-02T11:13:22.986Z,55.68
2023-05-02T11:14:22.981Z,57.76
2023-05-02T11:15:23.174Z,55.13
2023-05-02T11:16:23.024Z,54.15
2023-05-02T11:17:22.976Z,55.92
2023-05-02T11:18:22.956Z,52.50
2023-05-02T11:19:22.942Z,55.14
2023-05-02T11:20:22.942Z,55.99
2023-05-02T11:21:22.957Z,56.79
2023-05-02T11:22:22.925Z,50.56
2023-05-02T11:23:22.947Z,54.68
2023-05-02T11:24:22.912Z,57.73
2023-05-02T11:25:22.998Z,54.85
2023-05-02T11:26:22.892Z,54.39
2023-05-02T11:27:22.889Z,56.30
2023-05-02T11:28:22.882Z,54.47
2023-05-02T11:29:22.885Z,56.24
2023-05-02T11:30:22.894Z,54.87
2023-05-02T11:31:22.938Z,58.35
2023-05-02T11:32:23.077Z,57.32
2023-05-02T11:33:22.921Z,57.69
2023-05-02T11:34:55.446Z,58.41
2023-05-02T11:35:22.863Z,56.93
2023-05-02T11:36:22.811Z,58.41
2023-05-02T11:37:22.804Z,56.70
2023-05-02T11:38:22.799Z,55.83
2023-05-02T11:39:22.811Z,59.49
2023-05-02T11:40:22.814Z,56.90
2023-05-02T11:41:22.776Z,56.06
2023-05-02T11:42:22.774Z,56.14
2023-05-02T11:43:22.836Z,54.63
2023-05-02T11:44:22.751Z,56.84
2023-05-02T11:45:22.773Z,55.41
2023-05-02T11:46:22.868Z,54.29
2023-05-02T11:47:22.748Z,56.86
2023-05-02T11:48:22.732Z,57.59
2023-05-02T11:49:22.719Z,54.56
2023-05-02T11:50:22.732Z,55.71
2023-05-02T11:51:22.728Z,56.42
2023-05-02T11:52:22.702Z,57.09
2023-05-02T11:53:22.695Z,54.61
2023-05-02T11:54:22.686Z,54.07
2023-05-02T11:55:22.706Z,56.00
2023-05-02T11:56:22.664Z,51.97
2023-05-02T11:57:22.657Z,56.48
2023-05-02T11:58:22.678Z,57.22
2023-05-02T11:59:22.664Z,56.66
2023-05-02T12:00:22.669Z,57.21
2023-05-02T12:01:22.630Z,57.76
2023-05-02T12:02:22.707Z,57.31
2023-05-02T12:03:22.863Z,55.98
2023-05-02T12:04:22.635Z,56.01
2023-05-02T12:05:22.670Z,55.44
2023-05-02T12:06:22.735Z,53.74
2023-05-02T12:07:22.595Z,56.09
2023-05-02T12:08:22.585Z,55.36
2023-05-02T12:09:22.592Z,58.46
2023-05-02T12:10:22.591Z,58.61
2023-05-02T12:11:22.563Z,57.50
2023-05-02T12:12:22.558Z,59.56
2023-05-02T12:13:22.548Z,57.47
2023-05-02T12:14:22.550Z,58.07
2023-05-02T12:15:22.566Z,56.23
2023-05-02T12:16:22.554Z,58.59
2023-05-02T12:17:22.569Z,55.72
2023-05-02T12:18:22.546Z,59.59
2023-05-02T12:19:22.527Z,57.38
2023-05-02T12:20:22.527Z,57.78
2023-05-02T12:21:22.521Z,59.02
2023-05-02T12:22:22.487Z,57.86
2023-05-02T12:23:22.476Z,57.63
2023-05-02T12:24:22.504Z,60.57
2023-05-02T12:25:22.484Z,57.29
2023-05-02T12:26:22.612Z,58.94
2023-05-02T12:27:22.453Z,60.11
2023-05-02T12:28:22.452Z,59.22
2023-05-02T12:29:22.435Z,60.31
2023-05-02T12:30:22.451Z,57.48
2023-05-02T12:31:22.519Z,57.96
2023-05-02T12:32:22.438Z,56.79
2023-05-02T12:33:22.413Z,59.83
2023-05-02T12:34:22.401Z,54.50
2023-05-02T12:35:22.427Z,58.77
2023-05-02T12:36:22.380Z,55.97
2023-05-02T12:37:22.380Z,62.27
2023-05-02T12:38:22.365Z,65.53
2023-05-02T12:39:22.359Z,67.26
2023-05-02T12:40:22.385Z,66.37
2023-05-02T12:41:22.337Z,65.41
2023-05-02T12:42:22.333Z,63.94
2023-05-02T12:43:22.358Z,66.74
2023-05-02T12:44:22.335Z,66.23
2023-05-02T12:45:22.335Z,62.07
2023-05-02T12:46:22.343Z,67.56
2023-05-02T12:47:22.494Z,65.48
2023-05-02T12:48:22.290Z,65.32
2023-05-02T12:49:22.281Z,66.31
2023-05-02T12:50:22.294Z,68.29
2023-05-02T12:51:22.257Z,59.85
2023-05-02T12:52:22.284Z,59.41
2023-05-02T12:53:22.242Z,59.46
2023-05-02T12:54:22.242Z,60.63
2023-05-02T12:55:22.259Z,61.82
2023-05-02T12:56:22.225Z,66.43